Etusivu
METAR-TAF:

METAR-TAF

Lentoasemat :

Weno, Weno Island, Mikronesia

Leveyspiiri: 07-28N, Pituuspiiri: 151-51E, korkeus merenpinnasta: 3 m

Tämänhetkinen sää

Tämä raportti tehtiin 27 minuuttia sitten, kello 00.50 UTC
Tuuli 5 kn eri suunnista
Lämpötila 31°C
Kosteus 94%
Ilmanpaine 1011 hPa
Näkyvyys: 24.1 km
Muutamia pilviä 1400 ft:n korkeudessa
Hajonneita pilviä 28000 ft:n korkeudessa

METAR: PTKK 250050Z VRB05KT 15SM FEW014 BKN280 31/30 A2984 RMK SLP106 T03110296

Aika: 11:17 (01:17 UTC)

Sääennuste

Tämä raportti tehtiin 1 tunti ja 57 minuuttia sitten, kello 23.20 UTC
Ennuste voimassa 25. päivästä klo 00 UTC - 25. päivään klo 24 UTC
Tuuli 10 kn idästä/koillisesta
Näkyvyys: 10 km
Muutamia pilviä 1400 ft:n korkeudessa
Hajanaisia pilviä 10000 ft:n korkeudessa
sadekuuroja näköpiirissä

TAF: PTKK 242320Z 2500/2524 06010KT P6SM VCSH FEW014 SCT100

Säähavainnot ja -ennusteet yli 4000 lentoasemalta (METAR- ja TAF-raportit).

Käytössä olevat sääasemat on merkitty karttaan keltaisilla ja punaisilla pisteillä.

Aseta hiiri pisteen päälle nähdäksesi sääaseman nimen.

Klikkaa sitten nähdäksesi säähavainnot ja -ennusteet.

Kartan vaihtaminen: klikkaa mustalla rastilla varustettuja vihreitä pisteitä, niin voit zoomata sisään; viivalla varustettua vihreää pistettä, niin voit zoomata ulos tai vihreitä nuolia, niin pääset viereisille kartoille.


METAR-TAF: